createdAt,value
2018-08-13T00:01:29.131Z,10.80
2018-08-13T00:03:57.583Z,10.70
2018-08-13T00:06:26.013Z,10.80
2018-08-13T00:08:54.450Z,10.80
2018-08-13T00:11:23.080Z,10.90
2018-08-13T00:13:51.464Z,10.90
2018-08-13T00:16:19.906Z,10.90
2018-08-13T00:18:48.220Z,10.80
2018-08-13T00:21:16.618Z,11.00
2018-08-13T00:23:45.132Z,10.90
2018-08-13T00:26:13.641Z,10.90
2018-08-13T00:28:42.059Z,10.80
2018-08-13T00:31:10.531Z,10.70
2018-08-13T00:33:38.935Z,10.80
2018-08-13T00:36:07.347Z,10.70
2018-08-13T00:38:35.738Z,10.70
2018-08-13T00:41:04.232Z,10.60
2018-08-13T00:43:32.727Z,10.60
2018-08-13T00:46:01.168Z,10.70
2018-08-13T00:48:29.603Z,10.70
2018-08-13T00:50:58.080Z,10.60
2018-08-13T00:53:26.543Z,10.60
2018-08-13T00:55:55.000Z,10.70
2018-08-13T00:58:23.426Z,10.70
2018-08-13T01:00:51.928Z,10.70
2018-08-13T01:03:20.358Z,10.70
2018-08-13T01:05:48.779Z,10.70
2018-08-13T01:08:17.194Z,10.60
2018-08-13T01:10:45.626Z,10.70
2018-08-13T01:13:14.075Z,10.70
2018-08-13T01:15:42.509Z,10.60
2018-08-13T01:18:10.994Z,10.50
2018-08-13T01:20:39.436Z,10.50
2018-08-13T01:23:07.963Z,10.60
2018-08-13T01:25:36.459Z,10.70
2018-08-13T01:28:04.959Z,10.70
2018-08-13T01:30:33.389Z,10.80
2018-08-13T01:33:01.819Z,10.90
2018-08-13T01:35:30.298Z,10.90
2018-08-13T01:37:58.751Z,10.80
2018-08-13T01:40:27.155Z,10.80
2018-08-13T01:42:55.605Z,10.80
2018-08-13T01:45:24.026Z,10.80
2018-08-13T01:47:52.446Z,10.90
2018-08-13T01:50:20.866Z,11.00
2018-08-13T01:52:49.277Z,11.00
2018-08-13T01:55:17.786Z,11.10
2018-08-13T01:57:46.227Z,11.20
2018-08-13T02:00:15.898Z,11.30
2018-08-13T02:02:44.347Z,11.50
2018-08-13T02:05:12.771Z,11.60
2018-08-13T02:07:41.190Z,11.80
2018-08-13T02:10:11.143Z,12.00
2018-08-13T02:12:39.797Z,12.10
2018-08-13T02:15:08.291Z,12.20
2018-08-13T02:17:36.656Z,12.20
2018-08-13T02:20:06.619Z,12.20
2018-08-13T02:22:34.963Z,12.30
2018-08-13T02:25:03.359Z,12.40
2018-08-13T02:27:31.872Z,12.60
2018-08-13T02:30:00.254Z,12.60
2018-08-13T02:32:28.663Z,12.70
2018-08-13T02:34:56.986Z,12.70
2018-08-13T02:37:25.360Z,12.70
2018-08-13T02:39:53.779Z,12.70
2018-08-13T02:42:22.265Z,12.70
2018-08-13T02:44:50.646Z,12.80
2018-08-13T02:47:19.027Z,12.80
2018-08-13T02:49:47.430Z,12.80
2018-08-13T02:52:15.807Z,12.80
2018-08-13T02:54:44.220Z,12.70
2018-08-13T02:57:12.658Z,12.80
2018-08-13T02:59:41.092Z,12.90
2018-08-13T03:02:09.455Z,12.90
2018-08-13T03:04:37.881Z,13.10
2018-08-13T03:07:06.300Z,13.20
2018-08-13T03:09:34.645Z,13.40
2018-08-13T03:12:03.111Z,13.50
2018-08-13T03:14:31.557Z,13.60
2018-08-13T03:16:59.975Z,13.90
2018-08-13T03:19:28.346Z,14.40
2018-08-13T03:21:56.717Z,14.90
2018-08-13T03:24:25.210Z,15.40
2018-08-13T03:26:53.675Z,15.70
2018-08-13T03:29:22.133Z,16.30
2018-08-13T03:31:50.550Z,16.70
2018-08-13T03:34:18.986Z,17.00
2018-08-13T03:36:47.458Z,17.30
2018-08-13T03:39:15.899Z,17.60
2018-08-13T03:41:44.519Z,17.80
2018-08-13T03:44:13.092Z,17.90
2018-08-13T03:46:41.549Z,18.00
2018-08-13T03:49:11.379Z,18.00
2018-08-13T03:51:39.882Z,17.90
2018-08-13T03:54:08.344Z,18.00
2018-08-13T03:56:36.781Z,18.00
2018-08-13T03:59:05.219Z,18.00
2018-08-13T04:01:33.630Z,18.00
2018-08-13T04:04:02.403Z,17.90
2018-08-13T04:06:30.843Z,17.90
2018-08-13T04:08:59.554Z,17.60
2018-08-13T04:11:27.947Z,17.40
2018-08-13T04:13:56.432Z,17.30
2018-08-13T04:16:24.842Z,17.20
2018-08-13T04:18:53.325Z,17.10
2018-08-13T04:21:21.779Z,16.90
2018-08-13T04:23:50.222Z,16.90
2018-08-13T04:26:18.635Z,17.10
2018-08-13T04:28:46.976Z,17.20
2018-08-13T04:31:15.405Z,17.20
2018-08-13T04:33:43.861Z,17.10
2018-08-13T04:36:12.343Z,17.00
2018-08-13T04:38:40.779Z,17.00
2018-08-13T04:41:09.199Z,16.90
2018-08-13T04:43:37.672Z,16.80
2018-08-13T04:46:06.119Z,16.70
2018-08-13T04:48:34.605Z,16.50
2018-08-13T04:51:03.051Z,16.30
2018-08-13T04:53:31.542Z,16.10
2018-08-13T04:56:00.000Z,16.00
2018-08-13T04:58:28.511Z,16.00
2018-08-13T05:00:56.962Z,16.20
2018-08-13T05:03:25.379Z,16.30
2018-08-13T05:05:54.996Z,16.60
2018-08-13T05:08:23.461Z,17.10
2018-08-13T05:10:51.841Z,17.50
2018-08-13T05:13:20.267Z,17.90
2018-08-13T05:15:48.698Z,18.30
2018-08-13T05:18:17.340Z,18.70
2018-08-13T05:20:45.775Z,19.00
2018-08-13T05:23:14.702Z,19.30
2018-08-13T05:25:43.408Z,19.60
2018-08-13T05:28:11.855Z,19.90
2018-08-13T05:30:40.282Z,20.20
2018-08-13T05:33:08.699Z,20.40
2018-08-13T05:35:37.251Z,20.50
2018-08-13T05:38:05.666Z,20.70
2018-08-13T05:40:34.306Z,20.80
2018-08-13T05:43:02.771Z,20.90
2018-08-13T05:45:31.161Z,21.00
2018-08-13T05:47:59.843Z,21.10
2018-08-13T05:50:28.444Z,21.10
2018-08-13T05:52:56.906Z,21.10
2018-08-13T05:55:25.335Z,21.00
2018-08-13T05:57:53.952Z,20.90
2018-08-13T06:00:22.503Z,20.80
2018-08-13T06:02:50.979Z,20.80
2018-08-13T06:05:19.416Z,20.70
2018-08-13T06:07:47.845Z,20.60
2018-08-13T06:10:16.218Z,20.60
2018-08-13T06:12:44.656Z,20.60
2018-08-13T06:15:13.911Z,20.50
2018-08-13T06:17:42.351Z,20.50
2018-08-13T06:20:11.915Z,20.40
2018-08-13T06:22:41.528Z,20.40
2018-08-13T06:25:10.564Z,20.50
2018-08-13T06:27:39.291Z,20.60
2018-08-13T06:30:10.217Z,20.70
2018-08-13T06:32:38.994Z,20.80
2018-08-13T06:35:08.532Z,20.90
2018-08-13T06:37:37.062Z,20.90
2018-08-13T06:40:06.017Z,20.90
2018-08-13T06:42:34.419Z,20.80
2018-08-13T06:45:03.023Z,20.70
2018-08-13T06:47:31.515Z,20.70
2018-08-13T06:49:59.997Z,20.60
2018-08-13T06:52:28.428Z,20.40
2018-08-13T06:54:57.155Z,20.30
2018-08-13T06:57:25.667Z,20.20
2018-08-13T06:59:54.175Z,20.00
2018-08-13T07:02:22.800Z,19.80
2018-08-13T07:04:51.206Z,19.50
2018-08-13T07:07:19.823Z,18.80
2018-08-13T07:09:48.479Z,17.90
2018-08-13T07:12:16.935Z,17.10
2018-08-13T07:14:45.420Z,16.20
2018-08-13T07:17:13.978Z,15.70
2018-08-13T07:19:42.751Z,15.20
2018-08-13T07:22:11.273Z,14.80
2018-08-13T07:24:39.622Z,14.60
2018-08-13T07:27:07.971Z,14.40
2018-08-13T07:29:36.435Z,14.40
2018-08-13T07:32:05.007Z,14.30
2018-08-13T07:34:33.491Z,14.30
2018-08-13T07:37:01.935Z,14.30
2018-08-13T07:39:30.434Z,14.30
2018-08-13T07:41:58.911Z,14.30
2018-08-13T07:44:27.399Z,14.30
2018-08-13T07:46:55.833Z,14.30
2018-08-13T07:49:24.349Z,14.40
2018-08-13T07:51:52.978Z,14.40
2018-08-13T07:54:21.429Z,14.40
2018-08-13T07:56:49.879Z,14.50
2018-08-13T07:59:18.342Z,14.50
2018-08-13T08:01:46.846Z,14.60
2018-08-13T08:04:15.297Z,14.70
2018-08-13T08:06:43.785Z,14.80
2018-08-13T08:09:13.029Z,14.90
2018-08-13T08:11:41.448Z,15.00
2018-08-13T08:14:09.939Z,15.10
2018-08-13T08:16:38.361Z,15.10
2018-08-13T08:19:06.878Z,15.10
2018-08-13T08:21:35.430Z,15.20
2018-08-13T08:24:03.823Z,15.20
2018-08-13T08:26:32.216Z,15.20
2018-08-13T08:29:00.665Z,15.30
2018-08-13T08:31:29.123Z,15.30
2018-08-13T08:33:58.212Z,15.40
2018-08-13T08:36:26.610Z,15.50
2018-08-13T08:39:01.956Z,15.60
2018-08-13T08:41:30.513Z,15.60
2018-08-13T08:43:59.008Z,15.60
2018-08-13T08:46:27.483Z,15.60
2018-08-13T08:48:55.936Z,15.60
2018-08-13T08:51:24.438Z,15.60
2018-08-13T08:53:52.880Z,15.60
2018-08-13T08:56:21.388Z,15.60
2018-08-13T08:58:49.879Z,15.70
2018-08-13T09:01:18.335Z,15.80
2018-08-13T09:03:46.819Z,15.90
2018-08-13T09:06:15.343Z,16.00
2018-08-13T09:08:43.793Z,16.10
2018-08-13T09:11:12.298Z,16.20
2018-08-13T09:13:40.779Z,16.30
2018-08-13T09:16:09.295Z,16.40
2018-08-13T09:20:52.018Z,16.50
2018-08-13T09:23:31.896Z,16.60
2018-08-13T09:26:12.442Z,16.50
2018-08-13T09:28:52.288Z,16.50
2018-08-13T09:31:32.001Z,16.50
2018-08-13T09:34:11.780Z,16.50
2018-08-13T09:36:40.249Z,16.50
2018-08-13T09:39:09.736Z,16.50
2018-08-13T09:41:38.094Z,16.50
2018-08-13T09:44:06.568Z,16.40
2018-08-13T09:46:35.093Z,16.50
2018-08-13T09:49:03.635Z,16.50
2018-08-13T09:51:32.060Z,16.50
2018-08-13T09:54:00.544Z,16.50
2018-08-13T09:56:29.043Z,16.40
2018-08-13T09:58:57.595Z,16.50
2018-08-13T10:01:25.995Z,16.40
2018-08-13T10:03:54.522Z,16.30
2018-08-13T10:06:23.001Z,16.30
2018-08-13T10:08:51.441Z,16.30
2018-08-13T10:11:19.949Z,16.30
2018-08-13T10:13:48.380Z,16.30
2018-08-13T10:16:16.859Z,16.30
2018-08-13T10:18:45.384Z,16.40
2018-08-13T10:21:13.836Z,16.40
2018-08-13T10:23:42.267Z,16.40
2018-08-13T10:26:10.730Z,16.40
2018-08-13T10:28:39.136Z,16.50
2018-08-13T10:31:07.667Z,16.60
2018-08-13T10:33:36.080Z,16.70
2018-08-13T10:36:04.504Z,16.80
2018-08-13T10:38:32.933Z,16.90
2018-08-13T10:41:01.339Z,17.00
2018-08-13T10:43:29.730Z,17.10
2018-08-13T10:45:58.209Z,17.20
2018-08-13T10:48:26.663Z,17.30
2018-08-13T10:50:55.083Z,17.30
2018-08-13T10:53:23.549Z,17.40
2018-08-13T10:55:51.953Z,17.60
2018-08-13T10:58:20.416Z,17.80
2018-08-13T11:00:48.898Z,18.00
2018-08-13T11:03:17.368Z,18.00
2018-08-13T11:05:45.882Z,18.10
2018-08-13T11:08:14.373Z,18.30
2018-08-13T11:10:42.837Z,18.40
2018-08-13T11:13:11.348Z,18.50
2018-08-13T11:15:39.941Z,18.60
2018-08-13T11:18:08.355Z,18.80
2018-08-13T11:20:36.886Z,19.20
2018-08-13T11:23:05.231Z,19.60
2018-08-13T11:25:33.646Z,19.60
2018-08-13T11:28:02.115Z,19.60
2018-08-13T11:30:30.576Z,19.20
2018-08-13T11:32:59.043Z,18.80
2018-08-13T11:35:27.559Z,18.80
2018-08-13T11:37:55.863Z,18.70
2018-08-13T11:40:24.272Z,18.40
2018-08-13T11:42:52.599Z,18.30
2018-08-13T11:45:21.114Z,18.30
2018-08-13T11:47:49.561Z,18.30
2018-08-13T11:50:19.231Z,18.10
2018-08-13T11:52:48.886Z,18.00
2018-08-13T11:55:17.810Z,17.90
2018-08-13T11:57:46.843Z,18.00
2018-08-13T12:00:15.250Z,18.30
2018-08-13T12:02:43.714Z,18.70
2018-08-13T12:05:13.431Z,19.30
2018-08-13T12:07:42.088Z,19.40
2018-08-13T12:10:11.680Z,19.30
2018-08-13T12:12:41.082Z,19.30
2018-08-13T12:15:10.539Z,19.20
2018-08-13T12:17:39.142Z,19.30
2018-08-13T12:20:14.411Z,19.20
2018-08-13T12:22:43.271Z,18.90
2018-08-13T12:25:15.643Z,18.50
2018-08-13T12:27:44.410Z,18.30
2018-08-13T12:30:12.831Z,18.20
2018-08-13T12:32:41.344Z,18.00
2018-08-13T12:35:09.834Z,18.10
2018-08-13T12:37:38.379Z,18.20
2018-08-13T12:40:08.615Z,18.10
2018-08-13T12:42:37.547Z,17.90
2018-08-13T12:45:09.275Z,17.80
2018-08-13T12:47:37.770Z,17.60
2018-08-13T12:50:08.761Z,17.50
2018-08-13T12:52:37.298Z,17.40
2018-08-13T12:55:06.926Z,17.30
2018-08-13T12:57:35.502Z,17.20
2018-08-13T13:00:04.924Z,17.00
2018-08-13T13:02:33.387Z,16.90
2018-08-13T13:05:01.808Z,16.90
2018-08-13T13:07:33.103Z,16.80
2018-08-13T13:10:01.550Z,16.70
2018-08-13T13:12:30.053Z,16.60
2018-08-13T13:14:58.637Z,16.50
2018-08-13T13:17:27.081Z,16.40
2018-08-13T13:19:56.048Z,16.40
2018-08-13T13:22:24.456Z,16.30
2018-08-13T13:24:53.017Z,16.20
2018-08-13T13:27:21.455Z,16.10
2018-08-13T13:29:49.920Z,16.10
2018-08-13T13:32:18.347Z,16.00
2018-08-13T13:34:46.752Z,16.00
2018-08-13T13:37:15.133Z,15.90
2018-08-13T13:39:43.583Z,15.80
2018-08-13T13:42:12.035Z,15.80
2018-08-13T13:44:40.475Z,15.80
2018-08-13T13:47:09.008Z,15.90
2018-08-13T13:49:37.493Z,16.10
2018-08-13T13:52:06.160Z,16.30
2018-08-13T13:54:34.607Z,16.60
2018-08-13T13:57:03.106Z,16.80
2018-08-13T13:59:31.607Z,17.10
2018-08-13T14:02:00.126Z,17.30
2018-08-13T14:04:28.845Z,17.90
2018-08-13T14:06:57.296Z,18.20
2018-08-13T14:09:25.756Z,18.40
2018-08-13T14:11:54.300Z,18.70
2018-08-13T14:14:22.798Z,19.10
2018-08-13T14:16:51.337Z,19.50
2018-08-13T14:19:20.091Z,19.70
2018-08-13T14:21:48.901Z,20.50
2018-08-13T14:24:17.538Z,20.90
2018-08-13T14:26:46.481Z,21.60
2018-08-13T14:29:16.234Z,22.30
2018-08-13T14:31:44.763Z,22.60
2018-08-13T14:34:13.370Z,23.20
2018-08-13T14:36:42.091Z,22.50
2018-08-13T14:39:12.217Z,22.40
2018-08-13T14:41:40.780Z,22.70
2018-08-13T14:44:09.242Z,23.20
2018-08-13T14:46:37.787Z,23.70
2018-08-13T14:49:06.377Z,23.40
2018-08-13T14:51:35.297Z,22.10
2018-08-13T14:54:04.338Z,21.10
2018-08-13T14:56:32.878Z,20.40
2018-08-13T14:59:01.450Z,19.70
2018-08-13T15:01:30.294Z,19.30
2018-08-13T15:03:58.788Z,19.00
2018-08-13T15:06:27.328Z,18.70
2018-08-13T15:08:56.211Z,18.40
2018-08-13T15:11:29.182Z,17.50
2018-08-13T15:13:57.845Z,16.40
2018-08-13T15:16:26.577Z,15.50
2018-08-13T15:18:55.396Z,15.00
2018-08-13T15:21:23.918Z,14.80
2018-08-13T15:23:52.389Z,14.70
2018-08-13T15:26:20.875Z,14.80
2018-08-13T15:28:49.502Z,15.00
2018-08-13T15:31:17.970Z,15.20
2018-08-13T15:33:47.112Z,15.30
2018-08-13T15:36:15.875Z,15.50
2018-08-13T15:38:44.855Z,15.60
2018-08-13T15:41:13.562Z,16.10
2018-08-13T15:43:42.150Z,16.70
2018-08-13T15:46:10.901Z,16.80
2018-08-13T15:48:39.534Z,16.70
2018-08-13T15:51:08.308Z,16.50
2018-08-13T15:53:36.827Z,16.80
2018-08-13T15:56:05.254Z,17.30
2018-08-13T15:58:33.900Z,18.40
2018-08-13T16:01:02.432Z,19.00
2018-08-13T16:03:30.834Z,19.30
2018-08-13T16:05:59.455Z,19.40
2018-08-13T16:08:28.546Z,19.50
2018-08-13T16:10:57.179Z,19.70
2018-08-13T16:13:25.655Z,19.00
2018-08-13T16:15:54.262Z,18.40
2018-08-13T16:18:22.655Z,19.00
2018-08-13T16:20:50.985Z,19.40
2018-08-13T16:23:19.506Z,19.70
2018-08-13T16:25:48.108Z,20.30
2018-08-13T16:28:16.497Z,19.70
2018-08-13T16:30:44.828Z,19.00
2018-08-13T16:33:13.277Z,18.40
2018-08-13T16:35:41.630Z,18.00
2018-08-13T16:38:10.362Z,17.70
2018-08-13T16:40:38.873Z,17.50
2018-08-13T16:43:07.650Z,17.50
2018-08-13T16:45:36.087Z,17.50
2018-08-13T16:48:04.469Z,17.30
2018-08-13T16:50:33.967Z,17.20
2018-08-13T16:53:02.714Z,17.10
2018-08-13T16:55:32.005Z,17.00
2018-08-13T16:58:00.867Z,17.00
2018-08-13T17:00:30.812Z,16.90
2018-08-13T17:03:00.023Z,16.80
2018-08-13T17:05:30.375Z,16.80
2018-08-13T17:07:58.690Z,16.60
2018-08-13T17:10:28.282Z,16.50
2018-08-13T17:12:57.465Z,16.50
2018-08-13T17:15:27.280Z,16.50
2018-08-13T17:17:57.243Z,16.50
2018-08-13T17:20:28.380Z,16.50
2018-08-13T17:22:57.189Z,16.60
2018-08-13T17:25:25.654Z,16.90
2018-08-13T17:27:54.500Z,17.80
2018-08-13T17:30:25.124Z,18.00
2018-08-13T17:32:54.970Z,17.80
2018-08-13T17:35:25.150Z,17.70
2018-08-13T17:37:53.505Z,17.30
2018-08-13T17:40:23.015Z,17.00
2018-08-13T17:42:52.264Z,16.80
2018-08-13T17:45:20.922Z,16.60
2018-08-13T17:47:50.295Z,16.50
2018-08-13T17:50:20.443Z,16.40
2018-08-13T17:52:49.118Z,16.30
2018-08-13T17:55:18.065Z,16.20
2018-08-13T17:57:47.392Z,16.10
2018-08-13T18:00:19.140Z,16.10
2018-08-13T18:02:48.077Z,16.00
2018-08-13T18:05:19.381Z,15.90
2018-08-13T18:07:48.395Z,15.70
2018-08-13T18:10:20.785Z,15.60
2018-08-13T18:12:49.254Z,15.40
2018-08-13T18:15:17.961Z,15.20
2018-08-13T18:17:46.715Z,15.20
2018-08-13T18:20:15.641Z,15.00
2018-08-13T18:22:45.247Z,15.00
2018-08-13T18:25:14.546Z,15.00
2018-08-13T18:27:44.503Z,15.00
2018-08-13T18:30:16.350Z,15.00
2018-08-13T18:32:45.052Z,15.00
2018-08-13T18:35:13.837Z,15.00
2018-08-13T18:37:42.293Z,15.00
2018-08-13T18:40:14.826Z,15.10
2018-08-13T18:42:43.315Z,14.90
2018-08-13T18:45:12.129Z,14.90
2018-08-13T18:47:40.837Z,14.80
2018-08-13T18:50:11.510Z,14.70
2018-08-13T18:52:40.066Z,14.70
2018-08-13T18:55:09.266Z,14.70
2018-08-13T18:57:37.876Z,14.70
2018-08-13T19:00:09.795Z,14.60
2018-08-13T19:02:38.782Z,14.60
2018-08-13T19:05:08.106Z,14.60
2018-08-13T19:07:36.686Z,14.60
2018-08-13T19:10:07.671Z,14.70
2018-08-13T19:12:36.190Z,14.70
2018-08-13T19:15:05.967Z,14.70
2018-08-13T19:17:34.436Z,14.70
2018-08-13T19:20:02.884Z,14.70
2018-08-13T19:22:31.447Z,14.60
2018-08-13T19:24:59.899Z,14.50
2018-08-13T19:27:28.390Z,14.40
2018-08-13T19:29:57.022Z,14.20
2018-08-13T19:32:25.799Z,14.10
2018-08-13T19:34:54.336Z,14.10
2018-08-13T19:37:22.909Z,13.90
2018-08-13T19:39:51.669Z,13.80
2018-08-13T19:42:20.220Z,13.80
2018-08-13T19:44:48.803Z,13.70
2018-08-13T19:47:17.328Z,13.60
2018-08-13T19:49:45.748Z,13.60
2018-08-13T19:52:14.440Z,13.60
2018-08-13T19:54:42.913Z,13.50
2018-08-13T19:57:11.752Z,13.60
2018-08-13T19:59:40.456Z,13.60
2018-08-13T20:02:09.070Z,13.60
2018-08-13T20:04:37.590Z,13.50
2018-08-13T20:07:06.155Z,13.50
2018-08-13T20:09:34.620Z,13.50
2018-08-13T20:12:03.110Z,13.40
2018-08-13T20:14:31.736Z,13.40
2018-08-13T20:17:00.992Z,13.40
2018-08-13T20:19:29.584Z,13.40
2018-08-13T20:21:58.015Z,13.30
2018-08-13T20:24:26.482Z,13.30
2018-08-13T20:26:55.165Z,13.20
2018-08-13T20:31:58.399Z,13.10
2018-08-13T20:34:26.847Z,13.10
2018-08-13T20:36:55.299Z,13.10
2018-08-13T20:39:23.724Z,13.20
2018-08-13T20:41:52.166Z,13.20
2018-08-13T20:44:20.619Z,13.10
2018-08-13T20:46:49.076Z,13.10
2018-08-13T20:49:17.494Z,13.10
2018-08-13T20:51:45.795Z,13.10
2018-08-13T20:54:15.237Z,13.00
2018-08-13T20:56:43.662Z,13.00
2018-08-13T20:59:12.052Z,13.00
2018-08-13T21:01:40.434Z,13.00
2018-08-13T21:04:08.843Z,13.00
2018-08-13T21:06:37.304Z,13.00
2018-08-13T21:09:08.538Z,13.00
2018-08-13T21:11:36.915Z,13.00
2018-08-13T21:14:05.607Z,13.00
2018-08-13T21:16:34.085Z,13.00
2018-08-13T21:19:02.540Z,13.00
2018-08-13T21:21:31.021Z,13.00
2018-08-13T21:23:59.463Z,13.10
2018-08-13T21:26:27.951Z,13.20
2018-08-13T21:28:56.405Z,13.20
2018-08-13T21:31:24.889Z,13.30
2018-08-13T21:33:53.310Z,13.30
2018-08-13T21:36:21.717Z,13.40
2018-08-13T21:38:50.155Z,13.40
2018-08-13T21:41:18.647Z,13.30
2018-08-13T21:43:47.186Z,13.30
2018-08-13T21:46:15.639Z,13.20
2018-08-13T21:48:44.076Z,13.20
2018-08-13T21:51:12.522Z,13.10
2018-08-13T21:53:41.047Z,13.10
2018-08-13T21:56:09.428Z,13.10
2018-08-13T21:58:37.837Z,13.10
2018-08-13T22:01:11.748Z,13.00
2018-08-13T22:03:49.213Z,13.10
2018-08-13T22:06:17.638Z,13.10
2018-08-13T22:08:46.047Z,13.10
2018-08-13T22:11:14.500Z,13.20
2018-08-13T22:13:42.915Z,13.10
2018-08-13T22:16:11.291Z,13.10
2018-08-13T22:18:39.620Z,13.10
2018-08-13T22:21:08.028Z,13.10
2018-08-13T22:23:42.830Z,13.10
2018-08-13T22:26:11.211Z,13.10
2018-08-13T22:28:39.599Z,13.10
2018-08-13T22:31:08.016Z,13.10
2018-08-13T22:33:36.464Z,13.20
2018-08-13T22:36:04.865Z,13.20
2018-08-13T22:38:33.363Z,13.30
2018-08-13T22:41:01.760Z,13.40
2018-08-13T22:43:30.186Z,13.40
2018-08-13T22:45:58.675Z,13.40
2018-08-13T22:48:27.171Z,13.40
2018-08-13T22:50:55.608Z,13.40
2018-08-13T22:53:24.035Z,13.30
2018-08-13T22:55:52.419Z,13.30
2018-08-13T22:58:20.729Z,13.30
2018-08-13T23:00:49.177Z,13.30
2018-08-13T23:03:17.588Z,13.30
2018-08-13T23:05:45.938Z,13.30
2018-08-13T23:08:14.371Z,13.30
2018-08-13T23:10:43.675Z,13.40
2018-08-13T23:13:15.056Z,13.50
2018-08-13T23:15:43.431Z,13.50
2018-08-13T23:18:11.753Z,13.50
2018-08-13T23:20:40.096Z,13.50
2018-08-13T23:23:08.531Z,13.50
2018-08-13T23:25:37.352Z,13.50
2018-08-13T23:28:08.831Z,13.50
2018-08-13T23:30:37.260Z,13.40
2018-08-13T23:33:07.216Z,13.40
2018-08-13T23:35:35.519Z,13.40
2018-08-13T23:38:04.223Z,13.40
2018-08-13T23:40:32.669Z,13.40
2018-08-13T23:43:01.004Z,13.40
2018-08-13T23:45:30.555Z,13.40
2018-08-13T23:47:58.966Z,13.40
2018-08-13T23:50:27.733Z,13.40
2018-08-13T23:52:58.897Z,13.50
2018-08-13T23:55:28.527Z,13.60
2018-08-13T23:57:57.137Z,13.70
